sensor_id;sensor_type;location;lat;lon;timestamp;pressure;altitude;pressure_sealevel;temperature
58929;BMP180;44713;53.378;10.022;2022-07-29T00:02:13;101797.00;;;13.80
58929;BMP180;44713;53.378;10.022;2022-07-29T00:04:39;101790.00;;;13.80
58929;BMP180;44713;53.378;10.022;2022-07-29T00:07:04;101789.00;;;13.80
58929;BMP180;44713;53.378;10.022;2022-07-29T00:09:30;101779.00;;;13.70
58929;BMP180;44713;53.378;10.022;2022-07-29T00:11:59;101789.00;;;13.70
58929;BMP180;44713;53.378;10.022;2022-07-29T00:14:25;101784.00;;;13.70
58929;BMP180;44713;53.378;10.022;2022-07-29T00:16:51;101783.00;;;13.60
58929;BMP180;44713;53.378;10.022;2022-07-29T00:19:16;101779.00;;;13.60
58929;BMP180;44713;53.378;10.022;2022-07-29T00:21:42;101790.00;;;13.60
58929;BMP180;44713;53.378;10.022;2022-07-29T00:24:07;101775.00;;;13.50
58929;BMP180;44713;53.378;10.022;2022-07-29T00:26:33;101775.00;;;13.50
58929;BMP180;44713;53.378;10.022;2022-07-29T00:28:59;101780.00;;;13.50
58929;BMP180;44713;53.378;10.022;2022-07-29T00:31:25;101778.00;;;13.50
58929;BMP180;44713;53.378;10.022;2022-07-29T00:33:51;101769.00;;;13.40
58929;BMP180;44713;53.378;10.022;2022-07-29T00:36:16;101773.00;;;13.40
58929;BMP180;44713;53.378;10.022;2022-07-29T00:38:41;101770.00;;;13.30
58929;BMP180;44713;53.378;10.022;2022-07-29T00:41:10;101770.00;;;13.30
58929;BMP180;44713;53.378;10.022;2022-07-29T00:43:36;101767.00;;;13.20
58929;BMP180;44713;53.378;10.022;2022-07-29T00:46:01;101754.00;;;13.30
58929;BMP180;44713;53.378;10.022;2022-07-29T00:48:26;101755.00;;;13.30
58929;BMP180;44713;53.378;10.022;2022-07-29T00:50:52;101751.00;;;13.30
58929;BMP180;44713;53.378;10.022;2022-07-29T00:53:19;101761.00;;;13.20
58929;BMP180;44713;53.378;10.022;2022-07-29T00:55:45;101753.00;;;13.20
58929;BMP180;44713;53.378;10.022;2022-07-29T00:58:12;101752.00;;;13.20
58929;BMP180;44713;53.378;10.022;2022-07-29T01:00:38;101752.00;;;13.20
58929;BMP180;44713;53.378;10.022;2022-07-29T01:03:06;101744.00;;;13.20
58929;BMP180;44713;53.378;10.022;2022-07-29T01:05:31;101745.00;;;13.10
58929;BMP180;44713;53.378;10.022;2022-07-29T01:07:57;101740.00;;;13.10
58929;BMP180;44713;53.378;10.022;2022-07-29T01:10:23;101746.00;;;13.20
58929;BMP180;44713;53.378;10.022;2022-07-29T01:12:51;101736.00;;;13.10
58929;BMP180;44713;53.378;10.022;2022-07-29T01:15:17;101744.00;;;13.20
58929;BMP180;44713;53.378;10.022;2022-07-29T01:31:25;101722.00;;;13.00
58929;BMP180;44713;53.378;10.022;2022-07-29T01:33:58;101723.00;;;13.00
58929;BMP180;44713;53.378;10.022;2022-07-29T01:36:31;101720.00;;;12.80
58929;BMP180;44713;53.378;10.022;2022-07-29T01:39:08;101723.00;;;12.90
58929;BMP180;44713;53.378;10.022;2022-07-29T01:41:38;101708.00;;;12.90
58929;BMP180;44713;53.378;10.022;2022-07-29T01:44:14;101706.00;;;12.80
58929;BMP180;44713;53.378;10.022;2022-07-29T01:46:45;101712.00;;;12.80
58929;BMP180;44713;53.378;10.022;2022-07-29T01:49:21;101704.00;;;12.70
58929;BMP180;44713;53.378;10.022;2022-07-29T01:51:51;101714.00;;;12.80
58929;BMP180;44713;53.378;10.022;2022-07-29T01:54:30;101710.00;;;12.80
58929;BMP180;44713;53.378;10.022;2022-07-29T01:56:56;101701.00;;;12.80
58929;BMP180;44713;53.378;10.022;2022-07-29T01:59:23;101708.00;;;12.80
58929;BMP180;44713;53.378;10.022;2022-07-29T02:01:52;101702.00;;;12.80
58929;BMP180;44713;53.378;10.022;2022-07-29T02:04:19;101693.00;;;12.80
58929;BMP180;44713;53.378;10.022;2022-07-29T02:06:48;101697.00;;;12.70
58929;BMP180;44713;53.378;10.022;2022-07-29T02:09:14;101695.00;;;12.80
58929;BMP180;44713;53.378;10.022;2022-07-29T02:11:47;101696.00;;;12.70
58929;BMP180;44713;53.378;10.022;2022-07-29T02:14:14;101698.00;;;12.70
58929;BMP180;44713;53.378;10.022;2022-07-29T02:16:41;101699.00;;;12.70
58929;BMP180;44713;53.378;10.022;2022-07-29T02:19:07;101695.00;;;12.70
58929;BMP180;44713;53.378;10.022;2022-07-29T02:21:35;101687.00;;;12.60
58929;BMP180;44713;53.378;10.022;2022-07-29T02:24:01;101683.00;;;12.60
58929;BMP180;44713;53.378;10.022;2022-07-29T02:26:29;101682.00;;;12.70
58929;BMP180;44713;53.378;10.022;2022-07-29T02:28:56;101680.00;;;12.70
58929;BMP180;44713;53.378;10.022;2022-07-29T02:31:24;101687.00;;;12.70
58929;BMP180;44713;53.378;10.022;2022-07-29T02:33:51;101680.00;;;12.60
58929;BMP180;44713;53.378;10.022;2022-07-29T02:36:21;101682.00;;;12.70
58929;BMP180;44713;53.378;10.022;2022-07-29T02:38:48;101684.00;;;12.60
58929;BMP180;44713;53.378;10.022;2022-07-29T02:41:20;101683.00;;;12.60
58929;BMP180;44713;53.378;10.022;2022-07-29T02:43:50;101686.00;;;12.70
58929;BMP180;44713;53.378;10.022;2022-07-29T02:46:27;101684.00;;;12.70
58929;BMP180;44713;53.378;10.022;2022-07-29T02:51:41;101677.00;;;12.70
58929;BMP180;44713;53.378;10.022;2022-07-29T02:54:10;101682.00;;;12.70
58929;BMP180;44713;53.378;10.022;2022-07-29T02:56:38;101672.00;;;12.70
58929;BMP180;44713;53.378;10.022;2022-07-29T02:59:10;101680.00;;;12.80
58929;BMP180;44713;53.378;10.022;2022-07-29T03:01:39;101671.00;;;12.70
58929;BMP180;44713;53.378;10.022;2022-07-29T03:04:07;101674.00;;;12.70
58929;BMP180;44713;53.378;10.022;2022-07-29T03:06:33;101667.00;;;12.70
58929;BMP180;44713;53.378;10.022;2022-07-29T03:08:59;101673.00;;;12.70
58929;BMP180;44713;53.378;10.022;2022-07-29T03:11:26;101662.00;;;12.80
58929;BMP180;44713;53.378;10.022;2022-07-29T03:13:52;101660.00;;;12.80
58929;BMP180;44713;53.378;10.022;2022-07-29T03:16:19;101667.00;;;12.80
58929;BMP180;44713;53.378;10.022;2022-07-29T03:18:45;101655.00;;;12.80
58929;BMP180;44713;53.378;10.022;2022-07-29T03:21:11;101659.00;;;12.70
58929;BMP180;44713;53.378;10.022;2022-07-29T03:23:36;101656.00;;;12.70
58929;BMP180;44713;53.378;10.022;2022-07-29T03:26:01;101658.00;;;12.80
58929;BMP180;44713;53.378;10.022;2022-07-29T03:28:27;101658.00;;;12.70
58929;BMP180;44713;53.378;10.022;2022-07-29T03:30:53;101663.00;;;12.70
58929;BMP180;44713;53.378;10.022;2022-07-29T03:33:18;101662.00;;;12.70
58929;BMP180;44713;53.378;10.022;2022-07-29T03:35:44;101661.00;;;12.70
58929;BMP180;44713;53.378;10.022;2022-07-29T03:38:09;101664.00;;;12.70
58929;BMP180;44713;53.378;10.022;2022-07-29T03:40:42;101656.00;;;12.60
58929;BMP180;44713;53.378;10.022;2022-07-29T03:43:10;101661.00;;;12.60
58929;BMP180;44713;53.378;10.022;2022-07-29T03:45:37;101658.00;;;12.70
58929;BMP180;44713;53.378;10.022;2022-07-29T03:48:07;101660.00;;;12.60
58929;BMP180;44713;53.378;10.022;2022-07-29T03:50:34;101656.00;;;12.60
58929;BMP180;44713;53.378;10.022;2022-07-29T03:53:01;101655.00;;;12.70
58929;BMP180;44713;53.378;10.022;2022-07-29T03:55:28;101660.00;;;12.60
58929;BMP180;44713;53.378;10.022;2022-07-29T03:57:56;101653.00;;;12.60
58929;BMP180;44713;53.378;10.022;2022-07-29T04:00:23;101647.00;;;12.60
58929;BMP180;44713;53.378;10.022;2022-07-29T04:02:49;101652.00;;;12.70
58929;BMP180;44713;53.378;10.022;2022-07-29T04:05:17;101655.00;;;12.70
58929;BMP180;44713;53.378;10.022;2022-07-29T04:07:47;101648.00;;;12.70
58929;BMP180;44713;53.378;10.022;2022-07-29T04:10:12;101650.00;;;12.70
58929;BMP180;44713;53.378;10.022;2022-07-29T04:12:38;101656.00;;;12.70
58929;BMP180;44713;53.378;10.022;2022-07-29T04:15:04;101649.00;;;12.80
58929;BMP180;44713;53.378;10.022;2022-07-29T04:17:29;101650.00;;;12.80
58929;BMP180;44713;53.378;10.022;2022-07-29T04:19:55;101651.00;;;12.80
58929;BMP180;44713;53.378;10.022;2022-07-29T04:22:20;101648.00;;;12.90
58929;BMP180;44713;53.378;10.022;2022-07-29T04:24:45;101657.00;;;13.00
58929;BMP180;44713;53.378;10.022;2022-07-29T04:27:10;101651.00;;;13.00
58929;BMP180;44713;53.378;10.022;2022-07-29T04:29:36;101649.00;;;13.00
58929;BMP180;44713;53.378;10.022;2022-07-29T04:32:01;101650.00;;;13.00
58929;BMP180;44713;53.378;10.022;2022-07-29T04:34:26;101650.00;;;13.00
58929;BMP180;44713;53.378;10.022;2022-07-29T04:36:52;101656.00;;;13.00
58929;BMP180;44713;53.378;10.022;2022-07-29T04:39:17;101649.00;;;12.90
58929;BMP180;44713;53.378;10.022;2022-07-29T04:41:43;101650.00;;;13.10
58929;BMP180;44713;53.378;10.022;2022-07-29T04:44:09;101651.00;;;13.20
58929;BMP180;44713;53.378;10.022;2022-07-29T04:46:35;101654.00;;;13.20
58929;BMP180;44713;53.378;10.022;2022-07-29T04:49:00;101657.00;;;13.30
58929;BMP180;44713;53.378;10.022;2022-07-29T04:51:26;101661.00;;;13.30
58929;BMP180;44713;53.378;10.022;2022-07-29T04:53:51;101659.00;;;13.40
58929;BMP180;44713;53.378;10.022;2022-07-29T04:56:16;101666.00;;;13.40
58929;BMP180;44713;53.378;10.022;2022-07-29T04:58:42;101661.00;;;13.50
58929;BMP180;44713;53.378;10.022;2022-07-29T05:01:07;101667.00;;;13.50
58929;BMP180;44713;53.378;10.022;2022-07-29T05:03:32;101659.00;;;13.50
58929;BMP180;44713;53.378;10.022;2022-07-29T05:05:58;101658.00;;;13.60
58929;BMP180;44713;53.378;10.022;2022-07-29T05:08:23;101671.00;;;13.60
58929;BMP180;44713;53.378;10.022;2022-07-29T05:10:48;101658.00;;;13.70
58929;BMP180;44713;53.378;10.022;2022-07-29T05:13:14;101665.00;;;13.70
58929;BMP180;44713;53.378;10.022;2022-07-29T05:15:39;101655.00;;;13.80
58929;BMP180;44713;53.378;10.022;2022-07-29T05:18:05;101657.00;;;13.90
58929;BMP180;44713;53.378;10.022;2022-07-29T05:20:31;101656.00;;;14.00
58929;BMP180;44713;53.378;10.022;2022-07-29T05:22:58;101651.00;;;14.00
58929;BMP180;44713;53.378;10.022;2022-07-29T05:25:24;101650.00;;;14.00
58929;BMP180;44713;53.378;10.022;2022-07-29T05:27:50;101650.00;;;14.20
58929;BMP180;44713;53.378;10.022;2022-07-29T05:30:16;101651.00;;;14.10
58929;BMP180;44713;53.378;10.022;2022-07-29T05:32:41;101657.00;;;14.30
58929;BMP180;44713;53.378;10.022;2022-07-29T05:35:07;101666.00;;;14.40
58929;BMP180;44713;53.378;10.022;2022-07-29T05:37:33;101659.00;;;14.40
58929;BMP180;44713;53.378;10.022;2022-07-29T05:39:58;101661.00;;;14.50
58929;BMP180;44713;53.378;10.022;2022-07-29T05:42:25;101665.00;;;14.70
58929;BMP180;44713;53.378;10.022;2022-07-29T05:44:50;101666.00;;;14.80
58929;BMP180;44713;53.378;10.022;2022-07-29T05:47:16;101659.00;;;15.00
58929;BMP180;44713;53.378;10.022;2022-07-29T05:49:41;101661.00;;;15.00
58929;BMP180;44713;53.378;10.022;2022-07-29T05:52:07;101656.00;;;15.10
58929;BMP180;44713;53.378;10.022;2022-07-29T05:54:32;101658.00;;;15.20
58929;BMP180;44713;53.378;10.022;2022-07-29T05:56:57;101653.00;;;15.30
58929;BMP180;44713;53.378;10.022;2022-07-29T05:59:23;101652.00;;;15.30
58929;BMP180;44713;53.378;10.022;2022-07-29T06:01:48;101654.00;;;15.40
58929;BMP180;44713;53.378;10.022;2022-07-29T06:04:13;101657.00;;;15.50
58929;BMP180;44713;53.378;10.022;2022-07-29T06:06:39;101657.00;;;15.50
58929;BMP180;44713;53.378;10.022;2022-07-29T06:09:04;101652.00;;;15.50
58929;BMP180;44713;53.378;10.022;2022-07-29T06:11:29;101649.00;;;15.60
58929;BMP180;44713;53.378;10.022;2022-07-29T06:13:55;101650.00;;;15.70
58929;BMP180;44713;53.378;10.022;2022-07-29T06:16:20;101656.00;;;15.70
58929;BMP180;44713;53.378;10.022;2022-07-29T06:18:45;101658.00;;;15.90
58929;BMP180;44713;53.378;10.022;2022-07-29T06:21:11;101658.00;;;15.90
58929;BMP180;44713;53.378;10.022;2022-07-29T06:23:37;101649.00;;;15.90
58929;BMP180;44713;53.378;10.022;2022-07-29T06:26:02;101655.00;;;16.00
58929;BMP180;44713;53.378;10.022;2022-07-29T06:28:28;101658.00;;;16.10
58929;BMP180;44713;53.378;10.022;2022-07-29T06:30:53;101652.00;;;16.10
58929;BMP180;44713;53.378;10.022;2022-07-29T06:33:19;101654.00;;;16.20
58929;BMP180;44713;53.378;10.022;2022-07-29T06:35:44;101651.00;;;16.20
58929;BMP180;44713;53.378;10.022;2022-07-29T06:38:13;101660.00;;;16.20
58929;BMP180;44713;53.378;10.022;2022-07-29T06:40:45;101647.00;;;16.30
58929;BMP180;44713;53.378;10.022;2022-07-29T06:43:29;101653.00;;;16.30
58929;BMP180;44713;53.378;10.022;2022-07-29T06:45:58;101656.00;;;16.40
58929;BMP180;44713;53.378;10.022;2022-07-29T06:48:23;101652.00;;;16.50
58929;BMP180;44713;53.378;10.022;2022-07-29T06:50:49;101655.00;;;16.60
58929;BMP180;44713;53.378;10.022;2022-07-29T06:53:14;101642.00;;;16.70
58929;BMP180;44713;53.378;10.022;2022-07-29T06:55:39;101647.00;;;16.60
58929;BMP180;44713;53.378;10.022;2022-07-29T06:58:05;101644.00;;;16.70
58929;BMP180;44713;53.378;10.022;2022-07-29T07:00:30;101639.00;;;16.80
58929;BMP180;44713;53.378;10.022;2022-07-29T07:02:55;101644.00;;;16.80
58929;BMP180;44713;53.378;10.022;2022-07-29T07:05:21;101645.00;;;16.90
58929;BMP180;44713;53.378;10.022;2022-07-29T07:07:46;101644.00;;;16.90
58929;BMP180;44713;53.378;10.022;2022-07-29T07:10:11;101641.00;;;17.10
58929;BMP180;44713;53.378;10.022;2022-07-29T07:12:37;101641.00;;;17.10
58929;BMP180;44713;53.378;10.022;2022-07-29T07:15:02;101642.00;;;17.10
58929;BMP180;44713;53.378;10.022;2022-07-29T07:17:28;101643.00;;;17.20
58929;BMP180;44713;53.378;10.022;2022-07-29T07:19:53;101641.00;;;17.30
58929;BMP180;44713;53.378;10.022;2022-07-29T07:22:19;101642.00;;;17.30
58929;BMP180;44713;53.378;10.022;2022-07-29T07:24:44;101635.00;;;17.40
58929;BMP180;44713;53.378;10.022;2022-07-29T07:27:09;101631.00;;;17.50
58929;BMP180;44713;53.378;10.022;2022-07-29T07:29:35;101636.00;;;17.50
58929;BMP180;44713;53.378;10.022;2022-07-29T07:32:00;101629.00;;;17.60
58929;BMP180;44713;53.378;10.022;2022-07-29T07:34:25;101626.00;;;17.80
58929;BMP180;44713;53.378;10.022;2022-07-29T07:36:51;101628.00;;;17.90
58929;BMP180;44713;53.378;10.022;2022-07-29T07:39:16;101631.00;;;17.90
58929;BMP180;44713;53.378;10.022;2022-07-29T07:41:41;101633.00;;;18.00
58929;BMP180;44713;53.378;10.022;2022-07-29T07:44:07;101627.00;;;18.10
58929;BMP180;44713;53.378;10.022;2022-07-29T07:46:32;101630.00;;;18.10
58929;BMP180;44713;53.378;10.022;2022-07-29T07:48:57;101627.00;;;18.20
58929;BMP180;44713;53.378;10.022;2022-07-29T07:51:23;101631.00;;;18.30
58929;BMP180;44713;53.378;10.022;2022-07-29T07:53:48;101621.00;;;18.30
58929;BMP180;44713;53.378;10.022;2022-07-29T07:56:16;101623.00;;;18.40
58929;BMP180;44713;53.378;10.022;2022-07-29T07:58:41;101617.00;;;18.50
58929;BMP180;44713;53.378;10.022;2022-07-29T08:01:08;101614.00;;;18.50
58929;BMP180;44713;53.378;10.022;2022-07-29T08:03:35;101609.00;;;18.60
58929;BMP180;44713;53.378;10.022;2022-07-29T08:06:00;101614.00;;;18.70
58929;BMP180;44713;53.378;10.022;2022-07-29T08:08:26;101614.00;;;18.70
58929;BMP180;44713;53.378;10.022;2022-07-29T08:10:51;101616.00;;;18.70
58929;BMP180;44713;53.378;10.022;2022-07-29T08:13:25;101608.00;;;18.80
58929;BMP180;44713;53.378;10.022;2022-07-29T08:15:54;101606.00;;;19.00
58929;BMP180;44713;53.378;10.022;2022-07-29T08:18:23;101609.00;;;19.30
58929;BMP180;44713;53.378;10.022;2022-07-29T08:20:49;101606.00;;;19.30
58929;BMP180;44713;53.378;10.022;2022-07-29T08:23:15;101606.00;;;19.50
58929;BMP180;44713;53.378;10.022;2022-07-29T08:25:40;101617.00;;;19.70
58929;BMP180;44713;53.378;10.022;2022-07-29T08:28:06;101609.00;;;19.70
58929;BMP180;44713;53.378;10.022;2022-07-29T08:30:32;101615.00;;;19.60
58929;BMP180;44713;53.378;10.022;2022-07-29T08:32:58;101614.00;;;19.70
58929;BMP180;44713;53.378;10.022;2022-07-29T08:35:24;101606.00;;;19.70
58929;BMP180;44713;53.378;10.022;2022-07-29T08:37:50;101601.00;;;19.80
58929;BMP180;44713;53.378;10.022;2022-07-29T08:40:16;101609.00;;;19.90
58929;BMP180;44713;53.378;10.022;2022-07-29T08:42:41;101607.00;;;20.00
58929;BMP180;44713;53.378;10.022;2022-07-29T08:45:07;101617.00;;;20.10
58929;BMP180;44713;53.378;10.022;2022-07-29T08:47:33;101614.00;;;20.20
58929;BMP180;44713;53.378;10.022;2022-07-29T08:50:02;101617.00;;;20.30
58929;BMP180;44713;53.378;10.022;2022-07-29T08:52:28;101623.00;;;20.30
58929;BMP180;44713;53.378;10.022;2022-07-29T08:54:55;101622.00;;;20.40
58929;BMP180;44713;53.378;10.022;2022-07-29T08:57:21;101628.00;;;20.60
58929;BMP180;44713;53.378;10.022;2022-07-29T08:59:50;101625.00;;;20.60
58929;BMP180;44713;53.378;10.022;2022-07-29T09:02:19;101630.00;;;20.60
58929;BMP180;44713;53.378;10.022;2022-07-29T09:04:45;101625.00;;;20.60
58929;BMP180;44713;53.378;10.022;2022-07-29T09:07:15;101620.00;;;20.70
58929;BMP180;44713;53.378;10.022;2022-07-29T09:09:40;101621.00;;;20.80
58929;BMP180;44713;53.378;10.022;2022-07-29T09:12:06;101624.00;;;20.80
58929;BMP180;44713;53.378;10.022;2022-07-29T09:14:33;101618.00;;;20.90
58929;BMP180;44713;53.378;10.022;2022-07-29T09:16:59;101613.00;;;20.80
58929;BMP180;44713;53.378;10.022;2022-07-29T09:19:30;101603.00;;;21.00
58929;BMP180;44713;53.378;10.022;2022-07-29T09:21:57;101604.00;;;20.90
58929;BMP180;44713;53.378;10.022;2022-07-29T09:26:59;101608.00;;;21.20
58929;BMP180;44713;53.378;10.022;2022-07-29T09:29:25;101607.00;;;21.20
58929;BMP180;44713;53.378;10.022;2022-07-29T09:31:53;101607.00;;;21.30
58929;BMP180;44713;53.378;10.022;2022-07-29T09:34:24;101601.00;;;21.30
58929;BMP180;44713;53.378;10.022;2022-07-29T09:36:51;101608.00;;;21.30
58929;BMP180;44713;53.378;10.022;2022-07-29T09:39:30;101608.00;;;21.40
58929;BMP180;44713;53.378;10.022;2022-07-29T09:41:58;101606.00;;;21.50
58929;BMP180;44713;53.378;10.022;2022-07-29T09:44:24;101614.00;;;21.60
58929;BMP180;44713;53.378;10.022;2022-07-29T09:46:58;101612.00;;;21.60
58929;BMP180;44713;53.378;10.022;2022-07-29T09:49:24;101614.00;;;21.60
58929;BMP180;44713;53.378;10.022;2022-07-29T09:52:06;101614.00;;;21.60
58929;BMP180;44713;53.378;10.022;2022-07-29T09:54:32;101609.00;;;21.70
58929;BMP180;44713;53.378;10.022;2022-07-29T09:57:08;101608.00;;;22.00
58929;BMP180;44713;53.378;10.022;2022-07-29T09:59:37;101605.00;;;22.20
58929;BMP180;44713;53.378;10.022;2022-07-29T10:02:11;101604.00;;;22.30
58929;BMP180;44713;53.378;10.022;2022-07-29T10:04:42;101606.00;;;22.50
58929;BMP180;44713;53.378;10.022;2022-07-29T10:07:08;101595.00;;;22.60
58929;BMP180;44713;53.378;10.022;2022-07-29T10:09:34;101587.00;;;22.80
58929;BMP180;44713;53.378;10.022;2022-07-29T10:12:11;101594.00;;;23.00
58929;BMP180;44713;53.378;10.022;2022-07-29T10:14:39;101587.00;;;23.10
58929;BMP180;44713;53.378;10.022;2022-07-29T10:17:06;101600.00;;;23.30
58929;BMP180;44713;53.378;10.022;2022-07-29T10:19:32;101592.00;;;23.50
58929;BMP180;44713;53.378;10.022;2022-07-29T10:21:59;101585.00;;;23.70
58929;BMP180;44713;53.378;10.022;2022-07-29T10:24:29;101584.00;;;23.60
58929;BMP180;44713;53.378;10.022;2022-07-29T10:26:56;101581.00;;;23.60
58929;BMP180;44713;53.378;10.022;2022-07-29T10:29:23;101585.00;;;23.90
58929;BMP180;44713;53.378;10.022;2022-07-29T10:37:31;101572.00;;;23.90
58929;BMP180;44713;53.378;10.022;2022-07-29T10:40:21;101574.00;;;24.00
58929;BMP180;44713;53.378;10.022;2022-07-29T10:43:36;101567.00;;;24.10
58929;BMP180;44713;53.378;10.022;2022-07-29T10:46:03;101566.00;;;24.10
58929;BMP180;44713;53.378;10.022;2022-07-29T10:48:29;101559.00;;;24.20
58929;BMP180;44713;53.378;10.022;2022-07-29T10:51:00;101556.00;;;24.40
58929;BMP180;44713;53.378;10.022;2022-07-29T10:53:47;101561.00;;;24.60
58929;BMP180;44713;53.378;10.022;2022-07-29T10:56:32;101553.00;;;24.50
58929;BMP180;44713;53.378;10.022;2022-07-29T11:01:44;101548.00;;;25.30
58929;BMP180;44713;53.378;10.022;2022-07-29T11:04:10;101554.00;;;25.70
58929;BMP180;44713;53.378;10.022;2022-07-29T11:09:25;101542.00;;;25.90
58929;BMP180;44713;53.378;10.022;2022-07-29T11:11:51;101543.00;;;26.10
58929;BMP180;44713;53.378;10.022;2022-07-29T11:14:17;101546.00;;;26.10
58929;BMP180;44713;53.378;10.022;2022-07-29T11:17:04;101549.00;;;26.20
58929;BMP180;44713;53.378;10.022;2022-07-29T11:19:30;101546.00;;;26.00
58929;BMP180;44713;53.378;10.022;2022-07-29T11:21:56;101539.00;;;26.10
58929;BMP180;44713;53.378;10.022;2022-07-29T11:24:27;101547.00;;;26.10
58929;BMP180;44713;53.378;10.022;2022-07-29T11:27:07;101540.00;;;25.80
58929;BMP180;44713;53.378;10.022;2022-07-29T11:29:32;101539.00;;;25.70
58929;BMP180;44713;53.378;10.022;2022-07-29T11:32:10;101545.00;;;25.50
58929;BMP180;44713;53.378;10.022;2022-07-29T11:34:36;101537.00;;;25.60
58929;BMP180;44713;53.378;10.022;2022-07-29T11:47:52;101532.00;;;25.70
58929;BMP180;44713;53.378;10.022;2022-07-29T11:50:33;101538.00;;;25.70
58929;BMP180;44713;53.378;10.022;2022-07-29T11:52:59;101527.00;;;25.60
58929;BMP180;44713;53.378;10.022;2022-07-29T11:55:25;101531.00;;;25.60
58929;BMP180;44713;53.378;10.022;2022-07-29T11:57:56;101520.00;;;25.80
58929;BMP180;44713;53.378;10.022;2022-07-29T12:00:34;101522.00;;;26.00
58929;BMP180;44713;53.378;10.022;2022-07-29T12:03:03;101522.00;;;26.20
58929;BMP180;44713;53.378;10.022;2022-07-29T12:08:05;101522.00;;;26.80
58929;BMP180;44713;53.378;10.022;2022-07-29T12:10:30;101520.00;;;26.90
58929;BMP180;44713;53.378;10.022;2022-07-29T12:12:56;101517.00;;;27.10
58929;BMP180;44713;53.378;10.022;2022-07-29T12:15:21;101511.00;;;27.20
58929;BMP180;44713;53.378;10.022;2022-07-29T12:17:49;101512.00;;;27.40
58929;BMP180;44713;53.378;10.022;2022-07-29T12:20:30;101512.00;;;27.80
58929;BMP180;44713;53.378;10.022;2022-07-29T12:22:56;101508.00;;;27.80
58929;BMP180;44713;53.378;10.022;2022-07-29T12:25:23;101513.00;;;27.90
58929;BMP180;44713;53.378;10.022;2022-07-29T12:28:06;101514.00;;;28.00
58929;BMP180;44713;53.378;10.022;2022-07-29T12:30:43;101505.00;;;28.00
58929;BMP180;44713;53.378;10.022;2022-07-29T12:35:47;101504.00;;;28.60
58929;BMP180;44713;53.378;10.022;2022-07-29T12:38:14;101504.00;;;28.90
58929;BMP180;44713;53.378;10.022;2022-07-29T12:40:40;101505.00;;;29.20
58929;BMP180;44713;53.378;10.022;2022-07-29T12:43:16;101510.00;;;29.50
58929;BMP180;44713;53.378;10.022;2022-07-29T12:45:44;101503.00;;;29.60
58929;BMP180;44713;53.378;10.022;2022-07-29T12:48:10;101499.00;;;29.80
58929;BMP180;44713;53.378;10.022;2022-07-29T12:50:55;101497.00;;;29.90
58929;BMP180;44713;53.378;10.022;2022-07-29T12:53:21;101492.00;;;30.20
58929;BMP180;44713;53.378;10.022;2022-07-29T12:55:49;101500.00;;;30.20
58929;BMP180;44713;53.378;10.022;2022-07-29T12:58:27;101507.00;;;29.90
58929;BMP180;44713;53.378;10.022;2022-07-29T13:01:13;101509.00;;;29.50
58929;BMP180;44713;53.378;10.022;2022-07-29T13:03:50;101509.00;;;29.30
58929;BMP180;44713;53.378;10.022;2022-07-29T13:09:07;101506.00;;;28.60
58929;BMP180;44713;53.378;10.022;2022-07-29T13:11:34;101502.00;;;28.70
58929;BMP180;44713;53.378;10.022;2022-07-29T13:14:00;101500.00;;;28.60
58929;BMP180;44713;53.378;10.022;2022-07-29T13:16:25;101497.00;;;28.50
58929;BMP180;44713;53.378;10.022;2022-07-29T13:19:10;101494.00;;;28.60
58929;BMP180;44713;53.378;10.022;2022-07-29T13:21:37;101490.00;;;28.70
58929;BMP180;44713;53.378;10.022;2022-07-29T13:24:05;101483.00;;;28.70
58929;BMP180;44713;53.378;10.022;2022-07-29T13:26:31;101493.00;;;28.70
58929;BMP180;44713;53.378;10.022;2022-07-29T13:28:57;101491.00;;;28.60
58929;BMP180;44713;53.378;10.022;2022-07-29T13:31:23;101491.00;;;28.60
58929;BMP180;44713;53.378;10.022;2022-07-29T13:33:49;101490.00;;;28.70
58929;BMP180;44713;53.378;10.022;2022-07-29T13:36:14;101491.00;;;28.70
58929;BMP180;44713;53.378;10.022;2022-07-29T13:38:40;101484.00;;;28.90
58929;BMP180;44713;53.378;10.022;2022-07-29T13:41:05;101474.00;;;29.30
58929;BMP180;44713;53.378;10.022;2022-07-29T13:43:31;101476.00;;;29.20
58929;BMP180;44713;53.378;10.022;2022-07-29T13:45:56;101483.00;;;29.60
58929;BMP180;44713;53.378;10.022;2022-07-29T13:48:21;101477.00;;;30.10
58929;BMP180;44713;53.378;10.022;2022-07-29T13:50:47;101479.00;;;30.20
58929;BMP180;44713;53.378;10.022;2022-07-29T13:53:13;101481.00;;;29.90
58929;BMP180;44713;53.378;10.022;2022-07-29T13:55:39;101489.00;;;30.10
58929;BMP180;44713;53.378;10.022;2022-07-29T13:58:04;101473.00;;;30.10
58929;BMP180;44713;53.378;10.022;2022-07-29T14:00:29;101477.00;;;30.50
58929;BMP180;44713;53.378;10.022;2022-07-29T14:02:55;101475.00;;;30.50
58929;BMP180;44713;53.378;10.022;2022-07-29T14:05:20;101467.00;;;30.50
58929;BMP180;44713;53.378;10.022;2022-07-29T14:07:45;101466.00;;;30.50
58929;BMP180;44713;53.378;10.022;2022-07-29T14:10:11;101480.00;;;30.80
58929;BMP180;44713;53.378;10.022;2022-07-29T14:12:36;101470.00;;;31.00
58929;BMP180;44713;53.378;10.022;2022-07-29T14:15:02;101471.00;;;31.10
58929;BMP180;44713;53.378;10.022;2022-07-29T14:17:28;101471.00;;;31.30
58929;BMP180;44713;53.378;10.022;2022-07-29T14:19:53;101462.00;;;30.80
58929;BMP180;44713;53.378;10.022;2022-07-29T14:22:18;101462.00;;;30.80
58929;BMP180;44713;53.378;10.022;2022-07-29T14:24:44;101457.00;;;30.90
58929;BMP180;44713;53.378;10.022;2022-07-29T14:27:10;101469.00;;;31.10
58929;BMP180;44713;53.378;10.022;2022-07-29T14:29:35;101468.00;;;30.70
58929;BMP180;44713;53.378;10.022;2022-07-29T14:32:01;101453.00;;;30.50
58929;BMP180;44713;53.378;10.022;2022-07-29T14:34:26;101451.00;;;30.40
58929;BMP180;44713;53.378;10.022;2022-07-29T14:36:51;101452.00;;;30.70